sensor_id;sensor_type;location;lat;lon;timestamp;P1;durP1;ratioP1;P2;durP2;ratioP2
63534;SDS011;55128;50.230;18.944;2023-05-20T00:02:47;30.02;;;22.75;;
63534;SDS011;55128;50.230;18.944;2023-05-20T00:07:48;37.70;;;27.13;;
63534;SDS011;55128;50.230;18.944;2023-05-20T00:12:48;33.38;;;24.30;;
63534;SDS011;55128;50.230;18.944;2023-05-20T00:17:48;35.13;;;23.87;;
63534;SDS011;55128;50.230;18.944;2023-05-20T00:22:49;32.65;;;22.30;;
63534;SDS011;55128;50.230;18.944;2023-05-20T00:27:49;32.05;;;23.80;;
63534;SDS011;55128;50.230;18.944;2023-05-20T00:32:50;32.87;;;24.40;;
63534;SDS011;55128;50.230;18.944;2023-05-20T00:37:50;31.65;;;23.35;;
63534;SDS011;55128;50.230;18.944;2023-05-20T00:42:50;34.72;;;24.38;;
63534;SDS011;55128;50.230;18.944;2023-05-20T00:47:51;33.20;;;24.10;;
63534;SDS011;55128;50.230;18.944;2023-05-20T00:52:51;36.85;;;24.98;;
63534;SDS011;55128;50.230;18.944;2023-05-20T00:57:54;37.42;;;24.40;;
63534;SDS011;55128;50.230;18.944;2023-05-20T01:02:54;41.47;;;29.90;;
63534;SDS011;55128;50.230;18.944;2023-05-20T01:07:56;36.25;;;24.42;;
63534;SDS011;55128;50.230;18.944;2023-05-20T01:12:57;34.00;;;25.00;;
63534;SDS011;55128;50.230;18.944;2023-05-20T01:18:04;34.65;;;23.88;;
63534;SDS011;55128;50.230;18.944;2023-05-20T01:23:06;34.20;;;25.33;;
63534;SDS011;55128;50.230;18.944;2023-05-20T01:28:07;34.95;;;23.30;;
63534;SDS011;55128;50.230;18.944;2023-05-20T01:33:09;32.53;;;24.25;;
63534;SDS011;55128;50.230;18.944;2023-05-20T01:38:11;30.33;;;23.10;;
63534;SDS011;55128;50.230;18.944;2023-05-20T01:43:12;30.52;;;20.98;;
63534;SDS011;55128;50.230;18.944;2023-05-20T01:48:13;32.05;;;21.92;;
63534;SDS011;55128;50.230;18.944;2023-05-20T01:53:13;36.42;;;27.75;;
63534;SDS011;55128;50.230;18.944;2023-05-20T01:58:14;30.50;;;21.58;;
63534;SDS011;55128;50.230;18.944;2023-05-20T02:03:14;34.38;;;26.20;;
63534;SDS011;55128;50.230;18.944;2023-05-20T02:08:15;34.13;;;24.20;;
63534;SDS011;55128;50.230;18.944;2023-05-20T02:13:15;34.70;;;24.63;;
63534;SDS011;55128;50.230;18.944;2023-05-20T02:18:15;33.45;;;23.67;;
63534;SDS011;55128;50.230;18.944;2023-05-20T02:23:17;33.60;;;22.92;;
63534;SDS011;55128;50.230;18.944;2023-05-20T02:28:17;30.53;;;20.77;;
63534;SDS011;55128;50.230;18.944;2023-05-20T02:33:18;32.27;;;23.00;;
63534;SDS011;55128;50.230;18.944;2023-05-20T02:38:19;32.17;;;21.90;;
63534;SDS011;55128;50.230;18.944;2023-05-20T02:43:19;35.75;;;24.58;;
63534;SDS011;55128;50.230;18.944;2023-05-20T02:48:19;32.03;;;21.37;;
63534;SDS011;55128;50.230;18.944;2023-05-20T02:53:20;35.47;;;22.75;;
63534;SDS011;55128;50.230;18.944;2023-05-20T02:58:20;31.60;;;20.38;;
63534;SDS011;55128;50.230;18.944;2023-05-20T03:03:25;31.23;;;20.40;;
63534;SDS011;55128;50.230;18.944;2023-05-20T03:08:26;27.27;;;18.55;;
63534;SDS011;55128;50.230;18.944;2023-05-20T03:13:26;29.55;;;21.00;;
63534;SDS011;55128;50.230;18.944;2023-05-20T03:18:27;23.88;;;15.45;;
63534;SDS011;55128;50.230;18.944;2023-05-20T03:23:27;25.20;;;16.88;;
63534;SDS011;55128;50.230;18.944;2023-05-20T03:28:28;23.63;;;15.48;;
63534;SDS011;55128;50.230;18.944;2023-05-20T03:33:28;20.33;;;14.05;;
63534;SDS011;55128;50.230;18.944;2023-05-20T03:38:29;15.55;;;12.13;;
63534;SDS011;55128;50.230;18.944;2023-05-20T03:43:29;19.95;;;13.90;;
63534;SDS011;55128;50.230;18.944;2023-05-20T03:48:30;14.63;;;11.50;;
63534;SDS011;55128;50.230;18.944;2023-05-20T03:53:31;16.73;;;13.13;;
63534;SDS011;55128;50.230;18.944;2023-05-20T03:58:31;16.50;;;13.10;;
63534;SDS011;55128;50.230;18.944;2023-05-20T04:03:32;34.85;;;27.90;;
63534;SDS011;55128;50.230;18.944;2023-05-20T04:08:32;16.15;;;12.48;;
63534;SDS011;55128;50.230;18.944;2023-05-20T04:13:35;13.65;;;11.10;;
63534;SDS011;55128;50.230;18.944;2023-05-20T04:18:35;14.57;;;10.73;;
63534;SDS011;55128;50.230;18.944;2023-05-20T04:23:37;12.90;;;9.93;;
63534;SDS011;55128;50.230;18.944;2023-05-20T04:28:38;13.75;;;11.75;;
63534;SDS011;55128;50.230;18.944;2023-05-20T04:33:40;11.45;;;9.95;;
63534;SDS011;55128;50.230;18.944;2023-05-20T04:38:41;14.07;;;10.93;;
63534;SDS011;55128;50.230;18.944;2023-05-20T04:43:43;13.27;;;11.15;;
63534;SDS011;55128;50.230;18.944;2023-05-20T04:48:44;14.35;;;11.23;;
63534;SDS011;55128;50.230;18.944;2023-05-20T04:53:46;14.98;;;12.07;;
63534;SDS011;55128;50.230;18.944;2023-05-20T04:58:49;14.55;;;11.30;;
63534;SDS011;55128;50.230;18.944;2023-05-20T05:03:50;14.70;;;12.25;;
63534;SDS011;55128;50.230;18.944;2023-05-20T05:08:51;14.85;;;10.93;;
63534;SDS011;55128;50.230;18.944;2023-05-20T05:13:51;52.63;;;47.35;;
63534;SDS011;55128;50.230;18.944;2023-05-20T05:18:52;14.43;;;12.75;;
63534;SDS011;55128;50.230;18.944;2023-05-20T05:23:52;14.97;;;13.37;;
63534;SDS011;55128;50.230;18.944;2023-05-20T05:28:55;15.07;;;13.10;;
63534;SDS011;55128;50.230;18.944;2023-05-20T05:33:56;12.93;;;11.27;;
63534;SDS011;55128;50.230;18.944;2023-05-20T05:38:56;13.85;;;11.57;;
63534;SDS011;55128;50.230;18.944;2023-05-20T05:43:57;14.18;;;12.05;;
63534;SDS011;55128;50.230;18.944;2023-05-20T05:48:57;12.50;;;10.93;;
63534;SDS011;55128;50.230;18.944;2023-05-20T05:53:58;14.75;;;11.02;;
63534;SDS011;55128;50.230;18.944;2023-05-20T05:58:58;13.47;;;11.53;;
63534;SDS011;55128;50.230;18.944;2023-05-20T06:03:59;12.05;;;10.80;;
63534;SDS011;55128;50.230;18.944;2023-05-20T06:08:59;12.93;;;11.23;;
63534;SDS011;55128;50.230;18.944;2023-05-20T06:14:00;12.43;;;10.43;;
63534;SDS011;55128;50.230;18.944;2023-05-20T06:19:01;12.27;;;10.90;;
63534;SDS011;55128;50.230;18.944;2023-05-20T06:24:03;10.98;;;9.85;;
63534;SDS011;55128;50.230;18.944;2023-05-20T06:29:04;12.35;;;11.05;;
63534;SDS011;55128;50.230;18.944;2023-05-20T06:34:04;12.40;;;11.02;;
63534;SDS011;55128;50.230;18.944;2023-05-20T06:39:05;12.52;;;10.60;;
63534;SDS011;55128;50.230;18.944;2023-05-20T06:44:11;11.43;;;10.15;;
63534;SDS011;55128;50.230;18.944;2023-05-20T06:49:11;12.32;;;10.55;;
63534;SDS011;55128;50.230;18.944;2023-05-20T06:54:12;12.27;;;9.87;;
63534;SDS011;55128;50.230;18.944;2023-05-20T06:59:12;14.07;;;10.40;;
63534;SDS011;55128;50.230;18.944;2023-05-20T07:04:12;13.83;;;12.30;;
63534;SDS011;55128;50.230;18.944;2023-05-20T07:09:13;12.50;;;10.13;;
63534;SDS011;55128;50.230;18.944;2023-05-20T07:14:13;11.70;;;10.50;;
63534;SDS011;55128;50.230;18.944;2023-05-20T07:19:14;12.82;;;9.93;;
63534;SDS011;55128;50.230;18.944;2023-05-20T07:24:17;11.93;;;10.68;;
63534;SDS011;55128;50.230;18.944;2023-05-20T07:29:18;12.18;;;10.80;;
63534;SDS011;55128;50.230;18.944;2023-05-20T07:34:18;11.93;;;10.23;;
63534;SDS011;55128;50.230;18.944;2023-05-20T07:39:19;12.90;;;11.18;;
63534;SDS011;55128;50.230;18.944;2023-05-20T07:44:19;12.35;;;10.40;;
63534;SDS011;55128;50.230;18.944;2023-05-20T07:49:21;15.23;;;11.95;;
63534;SDS011;55128;50.230;18.944;2023-05-20T07:54:22;15.60;;;12.60;;
63534;SDS011;55128;50.230;18.944;2023-05-20T07:59:22;14.60;;;12.50;;
63534;SDS011;55128;50.230;18.944;2023-05-20T08:04:23;13.43;;;12.02;;
63534;SDS011;55128;50.230;18.944;2023-05-20T08:09:24;13.65;;;10.25;;
63534;SDS011;55128;50.230;18.944;2023-05-20T08:14:24;12.93;;;10.50;;
63534;SDS011;55128;50.230;18.944;2023-05-20T08:19:24;11.65;;;10.45;;
63534;SDS011;55128;50.230;18.944;2023-05-20T08:24:25;14.90;;;11.68;;
63534;SDS011;55128;50.230;18.944;2023-05-20T08:29:25;13.63;;;11.45;;
63534;SDS011;55128;50.230;18.944;2023-05-20T08:34:25;14.93;;;12.00;;
63534;SDS011;55128;50.230;18.944;2023-05-20T08:39:26;15.63;;;11.93;;
63534;SDS011;55128;50.230;18.944;2023-05-20T08:44:26;13.70;;;11.77;;
63534;SDS011;55128;50.230;18.944;2023-05-20T08:49:27;17.50;;;15.48;;
63534;SDS011;55128;50.230;18.944;2023-05-20T08:59:45;16.40;;;14.70;;
63534;SDS011;55128;50.230;18.944;2023-05-20T09:04:46;36.88;;;33.55;;
63534;SDS011;55128;50.230;18.944;2023-05-20T09:09:46;13.30;;;12.10;;
63534;SDS011;55128;50.230;18.944;2023-05-20T09:14:50;15.63;;;13.98;;
63534;SDS011;55128;50.230;18.944;2023-05-20T09:19:54;14.23;;;12.82;;
63534;SDS011;55128;50.230;18.944;2023-05-20T09:24:54;18.73;;;14.35;;
63534;SDS011;55128;50.230;18.944;2023-05-20T09:29:55;14.80;;;13.40;;
63534;SDS011;55128;50.230;18.944;2023-05-20T09:35:04;15.57;;;13.65;;
63534;SDS011;55128;50.230;18.944;2023-05-20T09:40:24;15.77;;;14.10;;
63534;SDS011;55128;50.230;18.944;2023-05-20T09:45:27;16.02;;;14.40;;
63534;SDS011;55128;50.230;18.944;2023-05-20T09:50:27;16.15;;;14.45;;
63534;SDS011;55128;50.230;18.944;2023-05-20T09:55:29;16.23;;;14.43;;
63534;SDS011;55128;50.230;18.944;2023-05-20T10:00:30;16.80;;;14.93;;
63534;SDS011;55128;50.230;18.944;2023-05-20T10:05:31;17.42;;;15.57;;
63534;SDS011;55128;50.230;18.944;2023-05-20T10:21:19;16.00;;;14.20;;
63534;SDS011;55128;50.230;18.944;2023-05-20T10:26:33;16.13;;;14.33;;
63534;SDS011;55128;50.230;18.944;2023-05-20T10:31:42;15.23;;;13.63;;
63534;SDS011;55128;50.230;18.944;2023-05-20T10:36:45;15.10;;;13.57;;
63534;SDS011;55128;50.230;18.944;2023-05-20T10:42:06;16.40;;;14.07;;
63534;SDS011;55128;50.230;18.944;2023-05-20T10:47:07;14.88;;;13.38;;
63534;SDS011;55128;50.230;18.944;2023-05-20T10:52:08;15.98;;;14.35;;
63534;SDS011;55128;50.230;18.944;2023-05-20T10:57:09;16.02;;;13.48;;
63534;SDS011;55128;50.230;18.944;2023-05-20T11:02:10;16.92;;;15.15;;
63534;SDS011;55128;50.230;18.944;2023-05-20T11:07:23;15.38;;;13.85;;
63534;SDS011;55128;50.230;18.944;2023-05-20T11:12:24;18.23;;;16.20;;
63534;SDS011;55128;50.230;18.944;2023-05-20T11:17:26;17.70;;;15.65;;
63534;SDS011;55128;50.230;18.944;2023-05-20T11:22:26;19.23;;;16.73;;
63534;SDS011;55128;50.230;18.944;2023-05-20T11:27:27;19.52;;;17.33;;
63534;SDS011;55128;50.230;18.944;2023-05-20T11:32:27;21.93;;;19.73;;
63534;SDS011;55128;50.230;18.944;2023-05-20T11:37:27;25.37;;;17.90;;
63534;SDS011;55128;50.230;18.944;2023-05-20T11:42:28;21.10;;;18.80;;
63534;SDS011;55128;50.230;18.944;2023-05-20T11:47:31;22.45;;;19.00;;
63534;SDS011;55128;50.230;18.944;2023-05-20T11:52:35;23.70;;;21.17;;
63534;SDS011;55128;50.230;18.944;2023-05-20T11:57:36;24.08;;;21.55;;
63534;SDS011;55128;50.230;18.944;2023-05-20T12:02:37;27.40;;;21.98;;
63534;SDS011;55128;50.230;18.944;2023-05-20T12:07:37;27.40;;;21.10;;
63534;SDS011;55128;50.230;18.944;2023-05-20T12:12:38;24.13;;;21.45;;
63534;SDS011;55128;50.230;18.944;2023-05-20T12:17:47;21.98;;;19.48;;
63534;SDS011;55128;50.230;18.944;2023-05-20T12:22:49;21.50;;;18.83;;
63534;SDS011;55128;50.230;18.944;2023-05-20T12:27:50;23.88;;;18.80;;
63534;SDS011;55128;50.230;18.944;2023-05-20T12:32:50;21.70;;;19.13;;
63534;SDS011;55128;50.230;18.944;2023-05-20T12:37:51;25.03;;;19.67;;
63534;SDS011;55128;50.230;18.944;2023-05-20T12:42:51;23.05;;;20.30;;
63534;SDS011;55128;50.230;18.944;2023-05-20T12:47:52;20.57;;;18.33;;
63534;SDS011;55128;50.230;18.944;2023-05-20T12:52:53;23.20;;;19.35;;
63534;SDS011;55128;50.230;18.944;2023-05-20T12:57:54;22.80;;;20.27;;
63534;SDS011;55128;50.230;18.944;2023-05-20T13:02:55;20.65;;;18.45;;
63534;SDS011;55128;50.230;18.944;2023-05-20T13:07:55;20.00;;;17.75;;
63534;SDS011;55128;50.230;18.944;2023-05-20T13:12:55;21.00;;;17.20;;
63534;SDS011;55128;50.230;18.944;2023-05-20T13:17:56;22.10;;;17.83;;
63534;SDS011;55128;50.230;18.944;2023-05-20T13:22:58;19.63;;;17.08;;
63534;SDS011;55128;50.230;18.944;2023-05-20T13:27:58;21.77;;;19.48;;
63534;SDS011;55128;50.230;18.944;2023-05-20T13:32:59;19.83;;;16.95;;
63534;SDS011;55128;50.230;18.944;2023-05-20T13:38:00;20.60;;;18.17;;
63534;SDS011;55128;50.230;18.944;2023-05-20T13:43:00;18.87;;;16.87;;
63534;SDS011;55128;50.230;18.944;2023-05-20T13:48:00;21.23;;;18.25;;
63534;SDS011;55128;50.230;18.944;2023-05-20T13:53:01;19.17;;;16.97;;
63534;SDS011;55128;50.230;18.944;2023-05-20T13:58:01;20.52;;;16.65;;
63534;SDS011;55128;50.230;18.944;2023-05-20T14:03:02;18.60;;;16.60;;
63534;SDS011;55128;50.230;18.944;2023-05-20T14:08:11;19.27;;;17.23;;
63534;SDS011;55128;50.230;18.944;2023-05-20T14:13:12;21.05;;;17.23;;
63534;SDS011;55128;50.230;18.944;2023-05-20T14:18:15;18.55;;;16.67;;
63534;SDS011;55128;50.230;18.944;2023-05-20T14:23:16;16.52;;;14.85;;
63534;SDS011;55128;50.230;18.944;2023-05-20T14:28:17;17.73;;;15.82;;
63534;SDS011;55128;50.230;18.944;2023-05-20T14:33:17;19.15;;;14.70;;
63534;SDS011;55128;50.230;18.944;2023-05-20T14:38:17;16.88;;;14.02;;
63534;SDS011;55128;50.230;18.944;2023-05-20T14:43:20;16.67;;;14.30;;
63534;SDS011;55128;50.230;18.944;2023-05-20T14:48:20;17.17;;;13.70;;
63534;SDS011;55128;50.230;18.944;2023-05-20T14:53:21;15.73;;;13.67;;
63534;SDS011;55128;50.230;18.944;2023-05-20T14:58:21;15.15;;;13.55;;
63534;SDS011;55128;50.230;18.944;2023-05-20T15:03:22;16.85;;;14.43;;
63534;SDS011;55128;50.230;18.944;2023-05-20T15:08:23;14.55;;;13.07;;
63534;SDS011;55128;50.230;18.944;2023-05-20T15:13:23;15.25;;;13.45;;
63534;SDS011;55128;50.230;18.944;2023-05-20T15:18:23;13.45;;;12.05;;
63534;SDS011;55128;50.230;18.944;2023-05-20T15:23:24;13.20;;;11.80;;
63534;SDS011;55128;50.230;18.944;2023-05-20T15:28:25;15.50;;;12.63;;
63534;SDS011;55128;50.230;18.944;2023-05-20T15:33:25;13.93;;;12.52;;
63534;SDS011;55128;50.230;18.944;2023-05-20T15:38:25;14.73;;;11.87;;
63534;SDS011;55128;50.230;18.944;2023-05-20T15:43:26;13.70;;;12.30;;
63534;SDS011;55128;50.230;18.944;2023-05-20T15:48:26;12.85;;;10.80;;
63534;SDS011;55128;50.230;18.944;2023-05-20T15:53:27;15.35;;;12.18;;
63534;SDS011;55128;50.230;18.944;2023-05-20T15:58:27;16.27;;;12.63;;
63534;SDS011;55128;50.230;18.944;2023-05-20T16:03:28;17.50;;;12.50;;
63534;SDS011;55128;50.230;18.944;2023-05-20T16:08:28;16.85;;;12.13;;
63534;SDS011;55128;50.230;18.944;2023-05-20T16:13:28;12.93;;;11.50;;
63534;SDS011;55128;50.230;18.944;2023-05-20T16:18:29;15.57;;;12.23;;
63534;SDS011;55128;50.230;18.944;2023-05-20T16:23:31;17.40;;;12.77;;
63534;SDS011;55128;50.230;18.944;2023-05-20T16:28:31;20.42;;;12.93;;
63534;SDS011;55128;50.230;18.944;2023-05-20T16:33:32;13.70;;;12.30;;
63534;SDS011;55128;50.230;18.944;2023-05-20T16:38:32;15.13;;;13.53;;
63534;SDS011;55128;50.230;18.944;2023-05-20T16:43:33;14.45;;;12.68;;
63534;SDS011;55128;50.230;18.944;2023-05-20T16:48:33;14.38;;;12.77;;
63534;SDS011;55128;50.230;18.944;2023-05-20T16:53:34;14.70;;;13.13;;
63534;SDS011;55128;50.230;18.944;2023-05-20T16:58:34;15.30;;;13.60;;
63534;SDS011;55128;50.230;18.944;2023-05-20T17:03:35;15.23;;;13.23;;
63534;SDS011;55128;50.230;18.944;2023-05-20T17:08:35;14.13;;;12.43;;
63534;SDS011;55128;50.230;18.944;2023-05-20T17:13:37;15.30;;;13.77;;
63534;SDS011;55128;50.230;18.944;2023-05-20T17:18:37;15.53;;;12.87;;
63534;SDS011;55128;50.230;18.944;2023-05-20T17:23:37;15.30;;;13.70;;
63534;SDS011;55128;50.230;18.944;2023-05-20T17:28:38;15.15;;;13.65;;
63534;SDS011;55128;50.230;18.944;2023-05-20T17:33:38;17.67;;;15.87;;
63534;SDS011;55128;50.230;18.944;2023-05-20T17:38:38;16.95;;;14.15;;
63534;SDS011;55128;50.230;18.944;2023-05-20T17:43:39;15.13;;;13.73;;
63534;SDS011;55128;50.230;18.944;2023-05-20T17:48:39;15.75;;;13.98;;
63534;SDS011;55128;50.230;18.944;2023-05-20T17:53:40;16.60;;;14.50;;
63534;SDS011;55128;50.230;18.944;2023-05-20T17:58:40;16.87;;;15.07;;
63534;SDS011;55128;50.230;18.944;2023-05-20T18:03:40;22.33;;;18.57;;
63534;SDS011;55128;50.230;18.944;2023-05-20T18:08:41;17.53;;;15.70;;
63534;SDS011;55128;50.230;18.944;2023-05-20T18:13:41;17.45;;;14.85;;
63534;SDS011;55128;50.230;18.944;2023-05-20T18:18:41;18.33;;;14.83;;
63534;SDS011;55128;50.230;18.944;2023-05-20T18:23:42;18.30;;;16.47;;
63534;SDS011;55128;50.230;18.944;2023-05-20T18:28:42;18.42;;;16.23;;
63534;SDS011;55128;50.230;18.944;2023-05-20T18:33:42;18.90;;;16.80;;
63534;SDS011;55128;50.230;18.944;2023-05-20T18:38:43;19.50;;;17.50;;
63534;SDS011;55128;50.230;18.944;2023-05-20T18:43:43;19.15;;;16.95;;
63534;SDS011;55128;50.230;18.944;2023-05-20T18:48:44;18.67;;;16.67;;
63534;SDS011;55128;50.230;18.944;2023-05-20T18:53:44;18.77;;;16.73;;
63534;SDS011;55128;50.230;18.944;2023-05-20T18:58:45;18.67;;;16.70;;
63534;SDS011;55128;50.230;18.944;2023-05-20T19:03:45;17.63;;;15.80;;
63534;SDS011;55128;50.230;18.944;2023-05-20T19:08:45;19.37;;;17.23;;
63534;SDS011;55128;50.230;18.944;2023-05-20T19:13:48;27.15;;;24.27;;
63534;SDS011;55128;50.230;18.944;2023-05-20T19:18:48;20.00;;;15.87;;
63534;SDS011;55128;50.230;18.944;2023-05-20T19:23:48;18.08;;;15.77;;
63534;SDS011;55128;50.230;18.944;2023-05-20T19:28:49;17.42;;;15.38;;
63534;SDS011;55128;50.230;18.944;2023-05-20T19:33:49;18.63;;;15.73;;
63534;SDS011;55128;50.230;18.944;2023-05-20T19:38:50;16.15;;;14.38;;
63534;SDS011;55128;50.230;18.944;2023-05-20T19:43:50;16.52;;;13.98;;
63534;SDS011;55128;50.230;18.944;2023-05-20T19:48:50;17.70;;;15.80;;
63534;SDS011;55128;50.230;18.944;2023-05-20T19:53:51;18.08;;;16.15;;
63534;SDS011;55128;50.230;18.944;2023-05-20T19:58:52;15.63;;;13.90;;
63534;SDS011;55128;50.230;18.944;2023-05-20T20:03:52;35.00;;;29.73;;
63534;SDS011;55128;50.230;18.944;2023-05-20T20:08:52;14.02;;;12.52;;
63534;SDS011;55128;50.230;18.944;2023-05-20T20:13:53;13.80;;;12.40;;
63534;SDS011;55128;50.230;18.944;2023-05-20T20:18:53;15.47;;;12.10;;
63534;SDS011;55128;50.230;18.944;2023-05-20T20:23:53;13.07;;;11.80;;
63534;SDS011;55128;50.230;18.944;2023-05-20T20:28:54;13.15;;;11.75;;
63534;SDS011;55128;50.230;18.944;2023-05-20T20:33:54;18.97;;;13.10;;
63534;SDS011;55128;50.230;18.944;2023-05-20T20:38:54;13.55;;;12.10;;
63534;SDS011;55128;50.230;18.944;2023-05-20T20:43:55;14.95;;;13.45;;
63534;SDS011;55128;50.230;18.944;2023-05-20T20:48:55;14.98;;;12.48;;
63534;SDS011;55128;50.230;18.944;2023-05-20T20:53:56;14.80;;;13.30;;
63534;SDS011;55128;50.230;18.944;2023-05-20T20:58:56;15.75;;;14.18;;
63534;SDS011;55128;50.230;18.944;2023-05-20T21:03:56;20.20;;;17.67;;
63534;SDS011;55128;50.230;18.944;2023-05-20T21:08:57;16.55;;;14.73;;
63534;SDS011;55128;50.230;18.944;2023-05-20T21:14:00;16.73;;;14.93;;
63534;SDS011;55128;50.230;18.944;2023-05-20T21:19:01;15.48;;;13.98;;
63534;SDS011;55128;50.230;18.944;2023-05-20T21:24:01;15.70;;;13.85;;
63534;SDS011;55128;50.230;18.944;2023-05-20T21:29:02;16.33;;;14.23;;
63534;SDS011;55128;50.230;18.944;2023-05-20T21:34:02;15.43;;;13.88;;
63534;SDS011;55128;50.230;18.944;2023-05-20T21:39:02;15.63;;;13.95;;
63534;SDS011;55128;50.230;18.944;2023-05-20T21:44:03;16.33;;;14.60;;
63534;SDS011;55128;50.230;18.944;2023-05-20T21:49:03;14.30;;;12.77;;
63534;SDS011;55128;50.230;18.944;2023-05-20T21:54:04;14.63;;;13.13;;
63534;SDS011;55128;50.230;18.944;2023-05-20T21:59:04;17.10;;;13.33;;
63534;SDS011;55128;50.230;18.944;2023-05-20T22:04:05;16.35;;;14.63;;
63534;SDS011;55128;50.230;18.944;2023-05-20T22:09:05;15.57;;;14.07;;
63534;SDS011;55128;50.230;18.944;2023-05-20T22:14:06;18.35;;;15.18;;
63534;SDS011;55128;50.230;18.944;2023-05-20T22:19:06;20.20;;;15.17;;
63534;SDS011;55128;50.230;18.944;2023-05-20T22:24:07;17.45;;;15.27;;
63534;SDS011;55128;50.230;18.944;2023-05-20T22:29:08;16.83;;;15.07;;
63534;SDS011;55128;50.230;18.944;2023-05-20T22:34:08;18.55;;;15.15;;
63534;SDS011;55128;50.230;18.944;2023-05-20T22:39:09;16.27;;;14.57;;
63534;SDS011;55128;50.230;18.944;2023-05-20T22:44:11;16.48;;;14.75;;
63534;SDS011;55128;50.230;18.944;2023-05-20T22:49:12;17.35;;;15.55;;
63534;SDS011;55128;50.230;18.944;2023-05-20T22:54:12;18.02;;;15.13;;
63534;SDS011;55128;50.230;18.944;2023-05-20T22:59:12;18.15;;;16.13;;
63534;SDS011;55128;50.230;18.944;2023-05-20T23:04:13;21.17;;;18.83;;
63534;SDS011;55128;50.230;18.944;2023-05-20T23:09:13;20.98;;;18.77;;
63534;SDS011;55128;50.230;18.944;2023-05-20T23:14:13;18.00;;;16.20;;
63534;SDS011;55128;50.230;18.944;2023-05-20T23:19:14;19.50;;;17.58;;
63534;SDS011;55128;50.230;18.944;2023-05-20T23:24:15;19.13;;;17.05;;
63534;SDS011;55128;50.230;18.944;2023-05-20T23:29:15;19.97;;;17.87;;
63534;SDS011;55128;50.230;18.944;2023-05-20T23:34:16;18.47;;;16.57;;
63534;SDS011;55128;50.230;18.944;2023-05-20T23:39:16;20.23;;;18.13;;
63534;SDS011;55128;50.230;18.944;2023-05-20T23:44:17;18.67;;;16.73;;
63534;SDS011;55128;50.230;18.944;2023-05-20T23:49:17;18.80;;;16.65;;
63534;SDS011;55128;50.230;18.944;2023-05-20T23:54:21;20.17;;;16.65;;
63534;SDS011;55128;50.230;18.944;2023-05-20T23:59:21;17.48;;;15.65;;
